Grand River, Iowa
Current Conditions -  °F | °C
As of 8:53 PM on Saturday 25 Oct 2014 (Local Time) from KLWD Reporting Station
Clear Clear  
Wind Chill: 14°   Ceiling: Unl
Heat Index: 14°   Visibility: 10mi
Dew Point:   Wind: 5mph
Humidity: 58%   Direction: 40°NE
Pressure: 30.05"   Gusts: NA
Location:  40.82°N, 93.96°W
Report Text: KLWD 260153Z AUTO 04004KT 10SM CLR 14/06 A3005 RMK AO2 SLP175 T01440061
Loading
Personal Weather Stations






























Interactive Weather Map
Tropical Storm Tracking
New forecast layout! Learn more

10-Day Weather Forecast

Advertisements
Track Severe Weather on mobile